sensor_id;sensor_type;location;lat;lon;timestamp;P1;durP1;ratioP1;P2;durP2;ratioP2
43690;SDS011;29293;52.190;21.226;2022-11-12T00:09:16;27.90;;;17.00;;
43690;SDS011;29293;52.190;21.226;2022-11-12T00:24:23;26.40;;;16.80;;
43690;SDS011;29293;52.190;21.226;2022-11-12T00:39:31;27.30;;;17.60;;
43690;SDS011;29293;52.190;21.226;2022-11-12T00:54:38;29.80;;;17.20;;
43690;SDS011;29293;52.190;21.226;2022-11-12T01:09:45;24.40;;;16.10;;
43690;SDS011;29293;52.190;21.226;2022-11-12T01:24:53;28.20;;;16.30;;
43690;SDS011;29293;52.190;21.226;2022-11-12T01:40:00;22.60;;;14.80;;
43690;SDS011;29293;52.190;21.226;2022-11-12T01:55:09;29.10;;;16.20;;
43690;SDS011;29293;52.190;21.226;2022-11-12T02:10:19;27.30;;;15.50;;
43690;SDS011;29293;52.190;21.226;2022-11-12T02:25:28;29.30;;;14.70;;
43690;SDS011;29293;52.190;21.226;2022-11-12T02:40:37;26.70;;;15.40;;
43690;SDS011;29293;52.190;21.226;2022-11-12T02:55:44;27.20;;;16.20;;
43690;SDS011;29293;52.190;21.226;2022-11-12T03:10:52;25.10;;;16.00;;
43690;SDS011;29293;52.190;21.226;2022-11-12T03:41:08;23.20;;;14.90;;
43690;SDS011;29293;52.190;21.226;2022-11-12T03:56:16;23.20;;;16.10;;
43690;SDS011;29293;52.190;21.226;2022-11-12T04:11:23;25.50;;;16.20;;
43690;SDS011;29293;52.190;21.226;2022-11-12T04:26:30;27.40;;;17.00;;
43690;SDS011;29293;52.190;21.226;2022-11-12T04:41:37;26.80;;;16.20;;
43690;SDS011;29293;52.190;21.226;2022-11-12T04:57:02;25.30;;;15.40;;
43690;SDS011;29293;52.190;21.226;2022-11-12T05:12:09;25.90;;;15.90;;
43690;SDS011;29293;52.190;21.226;2022-11-12T05:27:18;23.50;;;14.10;;
43690;SDS011;29293;52.190;21.226;2022-11-12T05:42:25;21.80;;;13.60;;
43690;SDS011;29293;52.190;21.226;2022-11-12T05:57:33;26.90;;;16.70;;
43690;SDS011;29293;52.190;21.226;2022-11-12T06:12:40;36.20;;;19.70;;
43690;SDS011;29293;52.190;21.226;2022-11-12T06:27:47;31.60;;;19.00;;
43690;SDS011;29293;52.190;21.226;2022-11-12T06:42:58;33.60;;;20.20;;
43690;SDS011;29293;52.190;21.226;2022-11-12T06:58:06;28.00;;;17.20;;
43690;SDS011;29293;52.190;21.226;2022-11-12T07:13:13;32.40;;;19.30;;
43690;SDS011;29293;52.190;21.226;2022-11-12T07:28:21;36.70;;;22.90;;
43690;SDS011;29293;52.190;21.226;2022-11-12T07:43:29;41.50;;;25.40;;
43690;SDS011;29293;52.190;21.226;2022-11-12T07:58:37;42.50;;;25.80;;
43690;SDS011;29293;52.190;21.226;2022-11-12T08:13:45;45.40;;;26.60;;
43690;SDS011;29293;52.190;21.226;2022-11-12T08:28:52;36.50;;;22.60;;
43690;SDS011;29293;52.190;21.226;2022-11-12T08:44:00;44.50;;;27.70;;
43690;SDS011;29293;52.190;21.226;2022-11-12T08:59:08;45.10;;;27.90;;
43690;SDS011;29293;52.190;21.226;2022-11-12T09:14:15;49.60;;;31.20;;
43690;SDS011;29293;52.190;21.226;2022-11-12T09:29:23;57.10;;;34.80;;
43690;SDS011;29293;52.190;21.226;2022-11-12T09:44:30;52.30;;;30.80;;
43690;SDS011;29293;52.190;21.226;2022-11-12T09:59:40;53.60;;;31.60;;
43690;SDS011;29293;52.190;21.226;2022-11-12T10:14:51;50.40;;;31.30;;
43690;SDS011;29293;52.190;21.226;2022-11-12T10:30:22;54.80;;;32.00;;
43690;SDS011;29293;52.190;21.226;2022-11-12T10:45:30;45.00;;;30.90;;
43690;SDS011;29293;52.190;21.226;2022-11-12T11:00:38;57.70;;;35.90;;
43690;SDS011;29293;52.190;21.226;2022-11-12T11:15:59;51.40;;;34.60;;
43690;SDS011;29293;52.190;21.226;2022-11-12T11:31:10;52.80;;;31.90;;
43690;SDS011;29293;52.190;21.226;2022-11-12T11:46:27;46.40;;;30.70;;
43690;SDS011;29293;52.190;21.226;2022-11-12T12:01:50;47.40;;;30.80;;
43690;SDS011;29293;52.190;21.226;2022-11-12T12:17:10;47.20;;;30.30;;
43690;SDS011;29293;52.190;21.226;2022-11-12T12:32:26;43.90;;;29.30;;
43690;SDS011;29293;52.190;21.226;2022-11-12T12:47:38;41.60;;;29.50;;
43690;SDS011;29293;52.190;21.226;2022-11-12T13:02:47;42.70;;;29.80;;
43690;SDS011;29293;52.190;21.226;2022-11-12T13:17:54;41.20;;;24.90;;
43690;SDS011;29293;52.190;21.226;2022-11-12T13:48:49;37.20;;;24.90;;
43690;SDS011;29293;52.190;21.226;2022-11-12T14:04:03;38.30;;;23.70;;
43690;SDS011;29293;52.190;21.226;2022-11-12T14:19:19;40.70;;;25.00;;
43690;SDS011;29293;52.190;21.226;2022-11-12T14:34:36;35.80;;;22.30;;
43690;SDS011;29293;52.190;21.226;2022-11-12T14:49:43;38.60;;;24.50;;
43690;SDS011;29293;52.190;21.226;2022-11-12T15:04:58;36.90;;;22.70;;
43690;SDS011;29293;52.190;21.226;2022-11-12T15:20:14;34.00;;;21.20;;
43690;SDS011;29293;52.190;21.226;2022-11-12T15:35:33;25.50;;;18.00;;
43690;SDS011;29293;52.190;21.226;2022-11-12T15:50:47;32.70;;;21.50;;
43690;SDS011;29293;52.190;21.226;2022-11-12T16:05:54;33.40;;;21.70;;
43690;SDS011;29293;52.190;21.226;2022-11-12T16:21:03;35.60;;;22.70;;
43690;SDS011;29293;52.190;21.226;2022-11-12T16:36:14;33.30;;;21.80;;
43690;SDS011;29293;52.190;21.226;2022-11-12T16:51:25;31.00;;;20.40;;
43690;SDS011;29293;52.190;21.226;2022-11-12T17:06:33;34.60;;;23.10;;
43690;SDS011;29293;52.190;21.226;2022-11-12T17:21:43;33.90;;;21.60;;
43690;SDS011;29293;52.190;21.226;2022-11-12T17:36:51;35.40;;;23.40;;
43690;SDS011;29293;52.190;21.226;2022-11-12T17:51:59;47.30;;;29.80;;
43690;SDS011;29293;52.190;21.226;2022-11-12T18:07:06;58.50;;;36.50;;
43690;SDS011;29293;52.190;21.226;2022-11-12T18:22:14;59.20;;;35.50;;
43690;SDS011;29293;52.190;21.226;2022-11-12T18:37:23;62.70;;;37.70;;
43690;SDS011;29293;52.190;21.226;2022-11-12T18:52:33;63.40;;;38.70;;
43690;SDS011;29293;52.190;21.226;2022-11-12T19:07:40;64.20;;;40.10;;
43690;SDS011;29293;52.190;21.226;2022-11-12T19:22:47;64.40;;;39.20;;
43690;SDS011;29293;52.190;21.226;2022-11-12T19:37:57;63.90;;;38.60;;
43690;SDS011;29293;52.190;21.226;2022-11-12T19:53:04;68.30;;;40.20;;
43690;SDS011;29293;52.190;21.226;2022-11-12T20:08:11;80.20;;;46.00;;
43690;SDS011;29293;52.190;21.226;2022-11-12T20:23:19;79.50;;;46.80;;
43690;SDS011;29293;52.190;21.226;2022-11-12T20:38:27;80.00;;;46.60;;
43690;SDS011;29293;52.190;21.226;2022-11-12T20:53:34;71.60;;;44.70;;
43690;SDS011;29293;52.190;21.226;2022-11-12T21:08:42;77.00;;;47.60;;
43690;SDS011;29293;52.190;21.226;2022-11-12T21:23:50;83.00;;;48.70;;
43690;SDS011;29293;52.190;21.226;2022-11-12T21:38:58;85.40;;;49.50;;
43690;SDS011;29293;52.190;21.226;2022-11-12T21:54:06;86.00;;;50.20;;
43690;SDS011;29293;52.190;21.226;2022-11-12T22:09:15;79.20;;;46.40;;
43690;SDS011;29293;52.190;21.226;2022-11-12T22:24:23;89.80;;;47.00;;
43690;SDS011;29293;52.190;21.226;2022-11-12T22:39:30;78.80;;;45.50;;
43690;SDS011;29293;52.190;21.226;2022-11-12T22:54:37;83.00;;;47.80;;
43690;SDS011;29293;52.190;21.226;2022-11-12T23:09:44;82.40;;;47.50;;
43690;SDS011;29293;52.190;21.226;2022-11-12T23:24:52;84.90;;;46.80;;
43690;SDS011;29293;52.190;21.226;2022-11-12T23:39:59;85.10;;;48.10;;
43690;SDS011;29293;52.190;21.226;2022-11-12T23:55:06;66.40;;;38.70;;
